Meteorológiai információk azoknak akik tudják olvasni.

METAR = LHBP 210700Z VRB03KT 2500 SN BR OVC005 00/00 Q1015 R13L/650294 R13R/650195 NOSIG

9 órás TAF = TAF TAF LHBP 182000Z 1820/1821 CNL

24 órás TAF = TAF TAF LHBP 210515Z 2106/2206 03006KT 6000 -RASN SCT008 BKN025 PROB40 TEMPO 2106/2111 2800 SN BR BKN004 BECMG 2121/2123 CAVOK

ÁLLOMÁS.................... LHBP
ÉSZLELÉS................... Wed Feb 21, 08:00 CET
MOST....................... Wed Feb 21, 08:14 CET
IDŐ........................ 14 perccel ezelőtt
SZÉL....................... változó irányból 3 csomó
LÁTÁSTÁVOLSÁG.............. 1.6 mérföld
IDŐJÁRÁS................... hó & párásság
FELHŐZET................... borult
HŐMÉRSÉKLET................ 32°F (0°C)
HARMATPONT................. 32°F (0°C)
PÁRATARTALOM............... 100%
LÉGNYOMÁS.................. 1015 hPa (29.97 in Hg)

További információ LHBP állomásról

Meteor információ kérése:        állomásról.    

 

www.tothgeza.hu

 

English version
Copyright © 2003-2018 Tóth Géza Minden jog fenntartva.